createdAt,value
2023-04-18T00:00:06.464Z,10.35
2023-04-18T00:01:15.055Z,11.05
2023-04-18T00:02:17.816Z,10.27
2023-04-18T00:03:21.941Z,10.80
2023-04-18T00:04:25.329Z,10.52
2023-04-18T00:05:29.886Z,10.88
2023-04-18T00:06:32.538Z,10.43
2023-04-18T00:07:38.003Z,9.80
2023-04-18T00:08:40.452Z,10.52
2023-04-18T00:09:43.716Z,10.18
2023-04-18T00:10:46.626Z,9.75
2023-04-18T00:11:49.057Z,10.73
2023-04-18T00:12:51.710Z,11.00
2023-04-18T00:13:54.277Z,10.25
2023-04-18T00:14:58.689Z,10.57
2023-04-18T00:16:01.797Z,10.40
2023-04-18T00:17:08.824Z,10.43
2023-04-18T00:18:11.330Z,10.43
2023-04-18T00:19:14.476Z,9.50
2023-04-18T00:20:16.690Z,10.25
2023-04-18T00:21:18.905Z,10.57
2023-04-18T00:22:22.555Z,10.50
2023-04-18T00:23:28.267Z,10.43
2023-04-18T00:24:30.700Z,10.68
2023-04-18T00:25:33.207Z,8.98
2023-04-18T00:26:35.505Z,10.02
2023-04-18T00:27:41.493Z,9.88
2023-04-18T00:28:43.742Z,9.77
2023-04-18T00:29:47.082Z,10.85
2023-04-18T00:30:51.923Z,9.60
2023-04-18T00:31:54.346Z,10.25
2023-04-18T00:32:57.057Z,10.23
2023-04-18T00:34:00.252Z,10.55
2023-04-18T00:35:02.534Z,10.32
2023-04-18T00:36:05.728Z,10.55
2023-04-18T00:37:09.810Z,9.40
2023-04-18T00:38:12.136Z,10.38
2023-04-18T00:39:16.321Z,10.70
2023-04-18T00:40:18.732Z,9.88
2023-04-18T00:41:22.550Z,10.25
2023-04-18T00:42:26.264Z,10.00
2023-04-18T00:43:28.499Z,10.10
2023-04-18T00:44:32.282Z,10.18
2023-04-18T00:45:34.743Z,9.20
2023-04-18T00:46:36.990Z,10.20
2023-04-18T00:47:39.822Z,11.20
2023-04-18T00:48:42.799Z,10.15
2023-04-18T00:49:45.732Z,10.68
2023-04-18T00:50:48.223Z,10.13
2023-04-18T00:51:51.316Z,10.23
2023-04-18T00:52:53.935Z,11.32
2023-04-18T00:53:57.037Z,10.05
2023-04-18T00:55:00.276Z,10.43
2023-04-18T00:56:02.955Z,10.40
2023-04-18T00:57:06.347Z,9.98
2023-04-18T00:58:09.285Z,9.77
2023-04-18T00:59:12.052Z,9.88
2023-04-18T01:00:15.275Z,10.43
2023-04-18T01:01:18.404Z,10.40
2023-04-18T01:02:20.904Z,9.23
2023-04-18T01:03:24.143Z,9.63
2023-04-18T01:04:27.438Z,9.57
2023-04-18T01:05:30.123Z,10.32
2023-04-18T01:06:33.218Z,9.30
2023-04-18T01:07:38.422Z,9.52
2023-04-18T01:08:42.392Z,9.68
2023-04-18T01:09:44.952Z,9.77
2023-04-18T01:10:49.468Z,8.88
2023-04-18T01:11:51.702Z,9.40
2023-04-18T01:13:17.101Z,10.35
2023-04-18T01:14:20.519Z,9.85
2023-04-18T01:15:22.940Z,9.90
2023-04-18T01:16:27.797Z,9.70
2023-04-18T01:17:30.458Z,9.85
2023-04-18T01:18:34.481Z,10.18
2023-04-18T01:19:40.390Z,9.57
2023-04-18T01:20:51.144Z,9.82
2023-04-18T01:21:55.285Z,10.00
2023-04-18T01:22:59.048Z,9.35
2023-04-18T01:24:08.724Z,10.07
2023-04-18T01:25:11.634Z,10.48
2023-04-18T01:26:14.192Z,10.25
2023-04-18T01:27:16.425Z,10.48
2023-04-18T01:28:21.493Z,9.85
2023-04-18T01:29:24.613Z,10.20
2023-04-18T01:30:26.958Z,10.75
2023-04-18T01:31:29.774Z,9.88
2023-04-18T01:32:32.131Z,10.63
2023-04-18T01:33:34.432Z,9.68
2023-04-18T01:34:36.852Z,10.15
2023-04-18T01:35:41.524Z,10.07
2023-04-18T01:36:44.559Z,9.75
2023-04-18T01:37:47.131Z,9.77
2023-04-18T01:38:49.341Z,10.63
2023-04-18T01:39:51.762Z,10.02
2023-04-18T01:40:54.582Z,11.32
2023-04-18T01:41:57.872Z,10.70
2023-04-18T01:43:00.697Z,10.18
2023-04-18T01:44:03.204Z,10.68
2023-04-18T01:45:06.421Z,9.90
2023-04-18T01:46:09.262Z,10.93
2023-04-18T01:47:11.525Z,10.90
2023-04-18T01:48:13.868Z,10.02
2023-04-18T01:49:17.737Z,9.95
2023-04-18T01:50:20.301Z,10.95
2023-04-18T01:51:23.323Z,10.00
2023-04-18T01:52:26.229Z,10.45
2023-04-18T01:53:28.882Z,10.20
2023-04-18T01:54:31.368Z,11.43
2023-04-18T01:55:33.882Z,9.88
2023-04-18T01:56:36.444Z,9.75
2023-04-18T01:57:38.710Z,10.80
2023-04-18T01:58:41.742Z,9.75
2023-04-18T01:59:44.164Z,10.00
2023-04-18T02:00:46.674Z,10.05
2023-04-18T02:01:49.133Z,10.50
2023-04-18T02:02:53.089Z,11.30
2023-04-18T02:03:56.587Z,10.30
2023-04-18T02:04:58.992Z,11.02
2023-04-18T02:06:02.991Z,10.32
2023-04-18T02:07:05.584Z,10.80
2023-04-18T02:08:08.241Z,11.02
2023-04-18T02:09:13.030Z,10.52
2023-04-18T02:10:18.980Z,10.98
2023-04-18T02:11:22.188Z,10.85
2023-04-18T02:12:24.671Z,11.10
2023-04-18T02:13:28.316Z,10.40
2023-04-18T02:14:35.240Z,11.82
2023-04-18T02:15:37.631Z,11.50
2023-04-18T02:16:40.736Z,10.88
2023-04-18T02:17:43.188Z,10.65
2023-04-18T02:18:45.689Z,10.15
2023-04-18T02:19:53.034Z,10.60
2023-04-18T02:20:55.494Z,10.55
2023-04-18T02:21:57.782Z,10.98
2023-04-18T02:23:01.218Z,11.02
2023-04-18T02:24:05.355Z,10.70
2023-04-18T02:25:08.199Z,11.70
2023-04-18T02:26:10.678Z,10.82
2023-04-18T02:27:13.025Z,9.85
2023-04-18T02:28:15.247Z,11.65
2023-04-18T02:29:17.700Z,10.68
2023-04-18T02:30:20.152Z,10.48
2023-04-18T02:31:22.388Z,10.98
2023-04-18T02:32:24.964Z,11.20
2023-04-18T02:33:27.339Z,10.32
2023-04-18T02:34:29.758Z,9.98
2023-04-18T02:35:32.282Z,10.98
2023-04-18T02:36:35.006Z,11.20
2023-04-18T02:37:38.605Z,10.65
2023-04-18T02:38:40.888Z,11.05
2023-04-18T02:39:43.084Z,10.80
2023-04-18T02:40:45.747Z,11.20
2023-04-18T02:41:47.972Z,10.65
2023-04-18T02:42:50.454Z,11.05
2023-04-18T02:43:52.720Z,11.43
2023-04-18T02:44:55.816Z,10.48
2023-04-18T02:45:58.232Z,10.23
2023-04-18T02:47:00.623Z,10.75
2023-04-18T02:48:03.209Z,11.55
2023-04-18T02:49:08.401Z,10.43
2023-04-18T02:50:11.182Z,11.20
2023-04-18T02:51:13.908Z,11.25
2023-04-18T02:52:17.812Z,10.60
2023-04-18T02:53:21.349Z,10.30
2023-04-18T02:54:29.585Z,11.15
2023-04-18T02:55:40.671Z,10.55
2023-04-18T02:56:42.995Z,10.38
2023-04-18T02:57:52.658Z,11.63
2023-04-18T02:59:20.952Z,10.90
2023-04-18T03:00:43.578Z,10.98
2023-04-18T03:01:56.655Z,10.38
2023-04-18T03:02:59.339Z,10.07
2023-04-18T03:04:28.685Z,11.07
2023-04-18T03:05:37.375Z,9.82
2023-04-18T03:06:41.711Z,11.25
2023-04-18T03:07:44.201Z,11.68
2023-04-18T03:08:46.700Z,9.95
2023-04-18T03:09:49.575Z,9.88
2023-04-18T03:10:57.257Z,9.43
2023-04-18T03:12:02.451Z,11.60
2023-04-18T03:13:06.154Z,10.93
2023-04-18T03:14:08.928Z,10.93
2023-04-18T03:15:31.271Z,10.88
2023-04-18T03:16:34.076Z,11.27
2023-04-18T03:17:38.235Z,9.70
2023-04-18T03:18:41.582Z,11.32
2023-04-18T03:19:44.987Z,11.60
2023-04-18T03:20:49.699Z,10.23
2023-04-18T03:21:52.555Z,11.38
2023-04-18T03:22:55.046Z,10.85
2023-04-18T03:24:00.755Z,9.63
2023-04-18T03:25:03.259Z,10.18
2023-04-18T03:26:16.888Z,10.82
2023-04-18T03:27:21.022Z,10.70
2023-04-18T03:28:24.031Z,10.15
2023-04-18T03:29:26.317Z,9.88
2023-04-18T03:30:28.565Z,10.93
2023-04-18T03:31:33.542Z,10.15
2023-04-18T03:32:36.567Z,10.65
2023-04-18T03:33:39.484Z,10.45
2023-04-18T03:34:45.494Z,10.80
2023-04-18T03:35:47.736Z,10.23
2023-04-18T03:36:50.637Z,10.43
2023-04-18T03:37:53.091Z,9.60
2023-04-18T03:39:05.723Z,9.75
2023-04-18T03:40:10.518Z,10.27
2023-04-18T03:41:12.759Z,9.10
2023-04-18T03:42:15.005Z,10.48
2023-04-18T03:43:21.066Z,9.65
2023-04-18T03:44:23.837Z,9.45
2023-04-18T03:45:26.168Z,9.77
2023-04-18T03:46:28.828Z,9.52
2023-04-18T03:47:32.391Z,10.20
2023-04-18T03:48:37.368Z,9.52
2023-04-18T03:49:46.515Z,10.35
2023-04-18T03:50:50.497Z,8.85
2023-04-18T03:51:53.879Z,9.75
2023-04-18T03:52:56.092Z,8.43
2023-04-18T03:53:58.316Z,8.73
2023-04-18T03:55:00.896Z,9.38
2023-04-18T03:56:08.338Z,9.43
2023-04-18T03:57:25.688Z,9.20
2023-04-18T03:58:27.968Z,9.75
2023-04-18T03:59:30.969Z,9.40
2023-04-18T04:00:33.748Z,9.23
2023-04-18T04:01:42.015Z,10.05
2023-04-18T04:02:44.481Z,9.15
2023-04-18T04:03:54.143Z,8.88
2023-04-18T04:04:57.036Z,8.80
2023-04-18T04:05:59.511Z,9.90
2023-04-18T04:07:02.117Z,9.10
2023-04-18T04:08:05.329Z,8.70
2023-04-18T04:09:09.339Z,9.15
2023-04-18T04:10:11.764Z,9.05
2023-04-18T04:11:14.038Z,9.07
2023-04-18T04:12:17.079Z,9.02
2023-04-18T04:13:19.512Z,8.93
2023-04-18T04:14:22.890Z,9.10
2023-04-18T04:15:25.460Z,9.05
2023-04-18T04:16:33.888Z,8.50
2023-04-18T04:17:36.929Z,8.98
2023-04-18T04:18:39.286Z,8.98
2023-04-18T04:19:42.260Z,9.13
2023-04-18T04:20:48.618Z,10.07
2023-04-18T04:22:13.872Z,8.70
2023-04-18T04:23:17.671Z,9.50
2023-04-18T04:24:22.737Z,9.00
2023-04-18T04:25:29.756Z,9.95
2023-04-18T04:26:36.185Z,9.40
2023-04-18T04:27:53.802Z,9.68
2023-04-18T04:28:57.965Z,9.32
2023-04-18T04:30:03.498Z,9.07
2023-04-18T04:31:06.859Z,9.10
2023-04-18T04:32:10.569Z,10.80
2023-04-18T04:33:13.955Z,9.85
2023-04-18T04:34:17.032Z,8.95
2023-04-18T04:35:19.393Z,10.13
2023-04-18T04:36:23.160Z,9.38
2023-04-18T04:37:28.336Z,8.77
2023-04-18T04:38:44.383Z,9.57
2023-04-18T04:39:47.434Z,8.40
2023-04-18T04:41:10.216Z,9.05
2023-04-18T04:42:13.392Z,8.80
2023-04-18T04:43:28.762Z,8.82
2023-04-18T04:44:33.518Z,9.30
2023-04-18T04:45:36.328Z,8.85
2023-04-18T04:46:40.396Z,9.18
2023-04-18T04:47:49.373Z,8.95
2023-04-18T04:48:53.139Z,9.65
2023-04-18T04:49:55.800Z,9.40
2023-04-18T04:50:59.504Z,10.10
2023-04-18T04:52:03.115Z,9.18
2023-04-18T04:53:06.474Z,9.27
2023-04-18T04:54:09.250Z,9.35
2023-04-18T04:55:11.552Z,9.57
2023-04-18T04:56:15.711Z,8.98
2023-04-18T04:57:18.550Z,8.32
2023-04-18T04:58:21.277Z,9.05
2023-04-18T04:59:32.687Z,9.20
2023-04-18T05:00:36.125Z,9.10
2023-04-18T05:01:38.396Z,8.40
2023-04-18T05:02:40.861Z,9.38
2023-04-18T05:03:43.474Z,8.40
2023-04-18T05:04:46.230Z,8.63
2023-04-18T05:05:48.614Z,8.10
2023-04-18T05:06:51.077Z,8.30
2023-04-18T05:07:53.379Z,8.85
2023-04-18T05:08:57.520Z,9.80
2023-04-18T05:10:00.203Z,8.90
2023-04-18T05:11:03.922Z,8.65
2023-04-18T05:12:06.677Z,8.82
2023-04-18T05:13:09.119Z,9.38
2023-04-18T05:14:12.642Z,9.52
2023-04-18T05:15:16.413Z,8.77
2023-04-18T05:16:18.705Z,8.30
2023-04-18T05:17:21.069Z,9.38
2023-04-18T05:18:23.522Z,8.90
2023-04-18T05:19:25.765Z,8.88
2023-04-18T05:20:28.474Z,8.60
2023-04-18T05:21:31.353Z,9.38
2023-04-18T05:22:33.650Z,9.20
2023-04-18T05:23:37.023Z,8.70
2023-04-18T05:24:39.559Z,8.45
2023-04-18T05:25:42.017Z,8.77
2023-04-18T05:26:44.327Z,8.73
2023-04-18T05:27:47.180Z,8.38
2023-04-18T05:28:49.484Z,9.05
2023-04-18T05:29:52.702Z,8.10
2023-04-18T05:31:01.501Z,8.48
2023-04-18T05:32:04.044Z,8.95
2023-04-18T05:33:06.582Z,10.02
2023-04-18T05:34:08.794Z,9.10
2023-04-18T05:35:11.622Z,9.02
2023-04-18T05:36:13.949Z,8.80
2023-04-18T05:37:16.153Z,9.20
2023-04-18T05:38:18.332Z,8.48
2023-04-18T05:39:20.720Z,7.88
2023-04-18T05:40:23.228Z,8.85
2023-04-18T05:41:25.724Z,8.82
2023-04-18T05:42:27.942Z,8.48
2023-04-18T05:43:30.254Z,8.20
2023-04-18T05:44:32.454Z,8.65
2023-04-18T05:45:35.003Z,8.85
2023-04-18T05:46:37.466Z,9.38
2023-04-18T05:47:40.038Z,9.23
2023-04-18T05:48:42.284Z,8.85
2023-04-18T05:49:44.694Z,8.65
2023-04-18T05:50:47.130Z,8.75
2023-04-18T05:51:49.995Z,8.98
2023-04-18T05:52:52.634Z,8.45
2023-04-18T05:53:54.980Z,9.50
2023-04-18T05:54:57.351Z,9.25
2023-04-18T05:55:59.960Z,8.75
2023-04-18T05:57:04.272Z,9.00
2023-04-18T05:58:07.705Z,8.32
2023-04-18T05:59:11.001Z,9.13
2023-04-18T06:00:14.006Z,9.07
2023-04-18T06:01:18.560Z,8.73
2023-04-18T06:02:21.336Z,9.15
2023-04-18T06:03:24.038Z,8.65
2023-04-18T06:04:26.648Z,9.40
2023-04-18T06:05:29.612Z,9.38
2023-04-18T06:06:32.197Z,9.70
2023-04-18T06:07:34.787Z,9.25
2023-04-18T06:08:39.178Z,8.20
2023-04-18T06:09:41.425Z,8.25
2023-04-18T06:10:44.019Z,13.05
2023-04-18T06:11:46.596Z,9.90
2023-04-18T06:12:48.816Z,8.63
2023-04-18T06:13:51.326Z,8.70
2023-04-18T06:14:53.556Z,8.43
2023-04-18T06:15:56.283Z,8.77
2023-04-18T06:16:58.694Z,8.77
2023-04-18T06:18:00.909Z,8.85
2023-04-18T06:19:04.089Z,8.80
2023-04-18T06:20:07.066Z,8.98
2023-04-18T06:21:09.280Z,8.18
2023-04-18T06:22:11.529Z,8.70
2023-04-18T06:23:13.863Z,9.43
2023-04-18T06:24:16.490Z,9.52
2023-04-18T06:25:19.581Z,9.80
2023-04-18T06:26:22.044Z,9.77
2023-04-18T06:27:31.629Z,11.18
2023-04-18T06:28:34.503Z,9.18
2023-04-18T06:29:38.214Z,9.68
2023-04-18T06:30:40.546Z,8.93
2023-04-18T06:31:45.530Z,8.65
2023-04-18T06:32:48.268Z,8.30
2023-04-18T06:33:51.356Z,8.90
2023-04-18T06:34:53.588Z,8.38
2023-04-18T06:35:56.150Z,8.50
2023-04-18T06:36:59.005Z,9.07
2023-04-18T06:38:01.602Z,8.85
2023-04-18T06:39:03.947Z,9.25
2023-04-18T06:40:06.847Z,13.30
2023-04-18T06:41:09.077Z,10.07
2023-04-18T06:42:11.482Z,12.43
2023-04-18T06:43:21.966Z,11.32
2023-04-18T06:44:24.240Z,9.32
2023-04-18T06:45:27.940Z,11.90
2023-04-18T06:46:30.477Z,9.20
2023-04-18T06:47:33.167Z,8.57
2023-04-18T06:48:35.402Z,8.57
2023-04-18T06:49:37.812Z,8.20
2023-04-18T06:50:40.231Z,7.82
2023-04-18T06:51:42.652Z,9.43
2023-04-18T06:52:45.631Z,9.05
2023-04-18T06:53:48.499Z,8.63
2023-04-18T06:54:50.717Z,8.07
2023-04-18T06:55:53.228Z,9.15
2023-04-18T06:56:56.175Z,8.80
2023-04-18T06:58:00.407Z,9.77
2023-04-18T06:59:02.986Z,14.45
2023-04-18T07:00:05.823Z,12.73
2023-04-18T07:01:08.039Z,9.68
2023-04-18T07:02:11.171Z,9.77
2023-04-18T07:03:13.787Z,9.75
2023-04-18T07:04:16.970Z,9.32
2023-04-18T07:05:19.701Z,9.15
2023-04-18T07:06:22.035Z,8.52
2023-04-18T07:07:24.259Z,9.80
2023-04-18T07:08:26.737Z,8.90
2023-04-18T07:09:29.159Z,8.85
2023-04-18T07:10:32.114Z,9.30
2023-04-18T07:11:34.390Z,12.32
2023-04-18T07:12:36.702Z,8.05
2023-04-18T07:13:39.174Z,9.32
2023-04-18T07:14:41.552Z,10.80
2023-04-18T07:15:44.046Z,8.98
2023-04-18T07:16:47.073Z,9.82
2023-04-18T07:17:49.590Z,11.85
2023-04-18T07:18:51.883Z,8.80
2023-04-18T07:19:54.298Z,9.32
2023-04-18T07:20:56.734Z,10.20
2023-04-18T07:21:59.085Z,8.93
2023-04-18T07:23:01.603Z,9.07
2023-04-18T07:24:03.885Z,9.95
2023-04-18T07:25:06.332Z,9.07
2023-04-18T07:26:10.207Z,9.45
2023-04-18T07:27:12.477Z,9.73
2023-04-18T07:28:14.921Z,8.93
2023-04-18T07:29:18.393Z,9.70
2023-04-18T07:30:20.721Z,9.20
2023-04-18T07:31:25.984Z,8.40
2023-04-18T07:32:28.597Z,8.95
2023-04-18T07:33:34.045Z,8.48
2023-04-18T07:34:37.508Z,9.43
2023-04-18T07:35:40.511Z,8.73
2023-04-18T07:36:42.868Z,8.73
2023-04-18T07:37:45.661Z,8.60
2023-04-18T07:38:48.170Z,8.55
2023-04-18T07:39:51.620Z,9.55
2023-04-18T07:41:01.177Z,8.98
2023-04-18T07:42:04.413Z,9.05
2023-04-18T07:43:07.047Z,9.48
2023-04-18T07:44:09.592Z,9.27
2023-04-18T07:45:11.952Z,9.18
2023-04-18T07:46:14.400Z,9.93
2023-04-18T07:47:17.201Z,9.55
2023-04-18T07:48:22.413Z,9.80
2023-04-18T07:49:24.704Z,9.10
2023-04-18T07:50:27.073Z,9.80
2023-04-18T07:51:31.833Z,9.57
2023-04-18T07:52:34.510Z,9.48
2023-04-18T07:53:36.995Z,8.82
2023-04-18T07:54:39.346Z,9.80
2023-04-18T07:55:43.290Z,10.40
2023-04-18T07:56:45.612Z,9.57
2023-04-18T07:57:50.444Z,10.18
2023-04-18T07:58:53.195Z,10.57
2023-04-18T07:59:55.577Z,10.60
2023-04-18T08:00:57.777Z,10.18
2023-04-18T08:02:00.127Z,10.27
2023-04-18T08:03:03.236Z,10.88
2023-04-18T08:04:06.016Z,10.75
2023-04-18T08:05:08.947Z,10.90
2023-04-18T08:06:11.254Z,10.25
2023-04-18T08:07:13.476Z,9.93
2023-04-18T08:08:17.011Z,11.02
2023-04-18T08:09:20.763Z,9.85
2023-04-18T08:10:23.888Z,10.63
2023-04-18T08:11:27.293Z,9.77
2023-04-18T08:12:29.578Z,9.07
2023-04-18T08:13:32.007Z,10.13
2023-04-18T08:14:34.439Z,9.50
2023-04-18T08:15:36.611Z,9.73
2023-04-18T08:16:39.483Z,10.18
2023-04-18T08:17:44.393Z,10.00
2023-04-18T08:18:46.928Z,10.02
2023-04-18T08:19:52.569Z,10.48
2023-04-18T08:20:54.876Z,9.80
2023-04-18T08:22:08.785Z,10.23
2023-04-18T08:23:13.063Z,9.93
2023-04-18T08:24:15.821Z,10.57
2023-04-18T08:25:18.139Z,10.30
2023-04-18T08:26:20.869Z,9.98
2023-04-18T08:27:23.092Z,9.25
2023-04-18T08:28:25.739Z,10.32
2023-04-18T08:29:28.166Z,9.82
2023-04-18T08:30:30.491Z,10.10
2023-04-18T08:31:32.907Z,12.70
2023-04-18T08:32:36.220Z,9.15
2023-04-18T08:33:38.455Z,9.40
2023-04-18T08:34:41.060Z,9.68
2023-04-18T08:35:43.655Z,9.13
2023-04-18T08:36:46.012Z,9.73
2023-04-18T08:37:48.217Z,9.63
2023-04-18T08:38:50.427Z,10.10
2023-04-18T08:39:52.851Z,8.93
2023-04-18T08:40:55.458Z,9.52
2023-04-18T08:41:59.681Z,9.35
2023-04-18T08:43:05.020Z,10.65
2023-04-18T08:44:07.523Z,9.40
2023-04-18T08:45:10.030Z,9.88
2023-04-18T08:46:12.794Z,10.30
2023-04-18T08:47:15.559Z,9.65
2023-04-18T08:48:18.594Z,9.65
2023-04-18T08:49:24.183Z,10.25
2023-04-18T08:50:26.974Z,9.48
2023-04-18T08:51:35.728Z,10.35
2023-04-18T08:52:40.100Z,9.75
2023-04-18T08:53:44.727Z,9.15
2023-04-18T08:54:49.062Z,9.43
2023-04-18T08:55:56.344Z,9.85
2023-04-18T08:57:07.447Z,10.07
2023-04-18T08:58:12.612Z,9.43
2023-04-18T08:59:18.428Z,9.48
2023-04-18T09:00:22.728Z,9.90
2023-04-18T09:01:57.006Z,9.75
2023-04-18T09:02:59.950Z,10.45
2023-04-18T09:04:02.224Z,10.50
2023-04-18T09:05:15.024Z,9.70
2023-04-18T09:06:19.347Z,10.73
2023-04-18T09:07:28.775Z,9.77
2023-04-18T09:08:31.330Z,9.82
2023-04-18T09:09:54.258Z,10.30
2023-04-18T09:11:18.442Z,10.15
2023-04-18T09:12:26.264Z,11.07
2023-04-18T09:13:39.505Z,10.38
2023-04-18T09:14:46.205Z,10.60
2023-04-18T09:15:54.964Z,10.98
2023-04-18T09:16:57.728Z,11.18
2023-04-18T09:18:02.754Z,10.23
2023-04-18T09:19:18.870Z,10.45
2023-04-18T09:20:53.328Z,11.00
2023-04-18T09:22:04.777Z,10.45
2023-04-18T09:23:11.006Z,11.07
2023-04-18T09:24:24.464Z,10.57
2023-04-18T09:25:38.412Z,10.70
2023-04-18T09:26:43.232Z,10.93
2023-04-18T09:27:46.083Z,10.88
2023-04-18T09:28:53.820Z,10.52
2023-04-18T09:29:58.017Z,12.40
2023-04-18T09:31:04.407Z,12.20
2023-04-18T09:32:07.102Z,10.90
2023-04-18T09:33:10.266Z,11.50
2023-04-18T09:34:24.916Z,11.65
2023-04-18T09:35:28.187Z,11.13
2023-04-18T09:36:32.359Z,11.27
2023-04-18T09:37:35.321Z,11.55
2023-04-18T09:38:41.263Z,11.70
2023-04-18T09:39:44.730Z,11.68
2023-04-18T09:40:47.322Z,11.70
2023-04-18T09:41:59.009Z,11.85
2023-04-18T09:43:16.730Z,12.05
2023-04-18T09:44:20.353Z,10.27
2023-04-18T09:45:24.539Z,11.75
2023-04-18T09:46:27.809Z,11.10
2023-04-18T09:47:30.896Z,13.05
2023-04-18T09:48:33.134Z,12.15
2023-04-18T09:49:35.747Z,23.15
2023-04-18T09:50:39.358Z,12.02
2023-04-18T09:51:43.872Z,10.75
2023-04-18T09:52:47.731Z,12.10
2023-04-18T09:53:51.012Z,11.65
2023-04-18T09:54:59.962Z,11.27
2023-04-18T09:56:03.755Z,12.40
2023-04-18T09:57:10.368Z,11.88
2023-04-18T09:58:13.976Z,12.95
2023-04-18T09:59:34.206Z,12.52
2023-04-18T10:00:39.146Z,11.30
2023-04-18T10:01:41.761Z,11.65
2023-04-18T10:03:05.092Z,11.85
2023-04-18T10:04:08.176Z,11.00
2023-04-18T10:05:11.303Z,12.10
2023-04-18T10:06:16.685Z,11.90
2023-04-18T10:07:19.173Z,11.65
2023-04-18T10:08:21.542Z,10.88
2023-04-18T10:09:24.014Z,12.35
2023-04-18T10:10:26.769Z,11.32
2023-04-18T10:11:31.544Z,11.18
2023-04-18T10:12:35.646Z,12.07
2023-04-18T10:13:41.623Z,11.82
2023-04-18T10:14:44.505Z,11.88
2023-04-18T10:15:47.228Z,12.20
2023-04-18T10:16:50.625Z,11.48
2023-04-18T10:19:25.898Z,13.50
2023-04-18T10:20:30.601Z,11.15
2023-04-18T10:21:34.788Z,11.02
2023-04-18T10:22:39.682Z,11.45
2023-04-18T10:23:42.165Z,11.82
2023-04-18T10:24:53.819Z,11.75
2023-04-18T10:25:56.511Z,11.80
2023-04-18T10:26:58.923Z,11.77
2023-04-18T10:28:02.541Z,11.85
2023-04-18T10:29:04.975Z,11.55
2023-04-18T10:30:09.099Z,11.65
2023-04-18T10:31:11.914Z,11.57
2023-04-18T10:32:14.576Z,12.18
2023-04-18T10:33:30.534Z,11.98
2023-04-18T10:34:37.576Z,11.45
2023-04-18T10:36:03.372Z,11.75
2023-04-18T10:37:06.531Z,11.13
2023-04-18T10:38:17.168Z,12.07
2023-04-18T10:39:25.496Z,12.90
2023-04-18T10:40:35.021Z,12.05
2023-04-18T10:41:50.064Z,12.80
2023-04-18T10:42:54.087Z,12.23
2023-04-18T10:44:12.094Z,12.73
2023-04-18T10:45:19.566Z,12.55
2023-04-18T10:46:31.904Z,12.43
2023-04-18T10:47:35.435Z,10.75
2023-04-18T10:48:39.398Z,12.50
2023-04-18T10:49:53.739Z,11.93
2023-04-18T10:51:22.459Z,13.30
2023-04-18T10:52:24.860Z,12.80
2023-04-18T10:53:27.474Z,12.52
2023-04-18T10:54:49.375Z,12.35
2023-04-18T10:55:55.288Z,12.50
2023-04-18T10:56:59.633Z,12.27
2023-04-18T10:58:03.306Z,12.13
2023-04-18T10:59:06.751Z,12.43
2023-04-18T11:00:13.876Z,13.30
2023-04-18T11:01:26.801Z,14.02
2023-04-18T11:02:32.484Z,13.82
2023-04-18T11:03:35.493Z,12.70
2023-04-18T11:04:38.865Z,12.88
2023-04-18T11:05:43.875Z,11.80
2023-04-18T11:06:51.663Z,12.82
2023-04-18T11:07:54.142Z,12.15
2023-04-18T11:09:13.523Z,11.90
2023-04-18T11:10:25.386Z,12.15
2023-04-18T11:11:27.661Z,12.57
2023-04-18T11:12:36.093Z,12.23
2023-04-18T11:13:56.428Z,12.48
2023-04-18T11:14:59.941Z,12.10
2023-04-18T11:16:02.408Z,12.60
2023-04-18T11:17:18.581Z,12.38
2023-04-18T11:18:20.867Z,12.00
2023-04-18T11:19:23.768Z,12.88
2023-04-18T11:20:26.690Z,12.65
2023-04-18T11:21:30.795Z,13.23
2023-04-18T11:22:33.283Z,13.45
2023-04-18T11:23:35.587Z,13.02
2023-04-18T11:24:38.056Z,13.38
2023-04-18T11:25:40.783Z,12.18
2023-04-18T11:26:44.511Z,12.68
2023-04-18T11:27:48.731Z,14.00
2023-04-18T11:28:52.942Z,12.93
2023-04-18T11:29:56.242Z,13.95
2023-04-18T11:31:00.431Z,12.65
2023-04-18T11:32:06.277Z,14.23
2023-04-18T11:33:13.710Z,12.90
2023-04-18T11:34:16.316Z,13.43
2023-04-18T11:35:19.837Z,14.38
2023-04-18T11:36:22.486Z,13.68
2023-04-18T11:37:24.733Z,11.95
2023-04-18T11:38:30.916Z,14.40
2023-04-18T11:39:42.688Z,13.52
2023-04-18T11:40:49.314Z,13.18
2023-04-18T11:41:51.895Z,13.75
2023-04-18T11:42:54.531Z,12.88
2023-04-18T11:43:56.827Z,13.35
2023-04-18T11:44:59.284Z,12.25
2023-04-18T11:46:01.897Z,12.68
2023-04-18T11:47:04.334Z,12.50
2023-04-18T11:48:06.737Z,12.70
2023-04-18T11:49:24.731Z,13.38
2023-04-18T11:50:27.714Z,12.43
2023-04-18T11:51:38.821Z,12.40
2023-04-18T11:52:42.620Z,12.27
2023-04-18T11:53:44.949Z,13.25
2023-04-18T11:54:47.148Z,13.20
2023-04-18T11:55:56.470Z,12.63
2023-04-18T11:56:58.634Z,12.80
2023-04-18T11:58:02.190Z,12.95
2023-04-18T11:59:10.674Z,13.77
2023-04-18T12:00:13.528Z,13.25
2023-04-18T12:01:25.049Z,13.70
2023-04-18T12:02:38.720Z,13.55
2023-04-18T12:03:41.488Z,13.02
2023-04-18T12:04:53.432Z,13.52
2023-04-18T12:06:01.178Z,12.10
2023-04-18T12:07:05.116Z,12.68
2023-04-18T12:08:19.078Z,12.57
2023-04-18T12:09:24.471Z,12.23
2023-04-18T12:10:29.767Z,12.65
2023-04-18T12:11:31.939Z,12.25
2023-04-18T12:12:35.079Z,12.23
2023-04-18T12:13:37.310Z,12.82
2023-04-18T12:14:39.562Z,12.45
2023-04-18T12:15:44.582Z,13.30
2023-04-18T12:16:49.295Z,12.35
2023-04-18T12:17:54.686Z,12.25
2023-04-18T12:19:03.285Z,12.55
2023-04-18T12:20:10.057Z,12.63
2023-04-18T12:21:12.470Z,13.23
2023-04-18T12:22:17.064Z,12.55
2023-04-18T12:23:42.416Z,12.05
2023-04-18T12:24:44.835Z,12.23
2023-04-18T12:25:59.485Z,12.30
2023-04-18T12:27:01.933Z,11.93
2023-04-18T12:28:15.501Z,10.88
2023-04-18T12:29:17.835Z,12.60
2023-04-18T12:30:25.525Z,12.30
2023-04-18T12:31:28.855Z,11.82
2023-04-18T12:32:31.112Z,12.82
2023-04-18T12:33:34.363Z,11.93
2023-04-18T12:34:36.541Z,11.73
2023-04-18T12:35:38.730Z,12.10
2023-04-18T12:36:41.983Z,13.48
2023-04-18T12:37:44.148Z,11.88
2023-04-18T12:38:48.780Z,11.93
2023-04-18T12:39:51.022Z,11.82
2023-04-18T12:40:53.351Z,12.90
2023-04-18T12:41:55.524Z,12.50
2023-04-18T12:42:57.981Z,12.00
2023-04-18T12:44:00.438Z,12.50
2023-04-18T12:45:07.602Z,11.85
2023-04-18T12:46:10.169Z,11.98
2023-04-18T12:47:12.454Z,12.15
2023-04-18T12:48:14.731Z,11.48
2023-04-18T12:49:17.298Z,12.57
2023-04-18T12:50:25.217Z,11.98
2023-04-18T12:51:28.104Z,11.95
2023-04-18T12:52:31.590Z,11.70
2023-04-18T12:53:34.042Z,12.57
2023-04-18T12:54:38.001Z,11.88
2023-04-18T12:55:40.302Z,11.63
2023-04-18T12:56:42.665Z,11.73
2023-04-18T12:57:45.090Z,11.52
2023-04-18T12:58:47.427Z,12.00
2023-04-18T12:59:49.601Z,27.55
2023-04-18T13:00:52.037Z,12.98
2023-04-18T13:01:54.297Z,13.35
2023-04-18T13:02:57.213Z,13.63
2023-04-18T13:04:10.798Z,12.90
2023-04-18T13:05:17.279Z,12.48
2023-04-18T13:06:19.645Z,12.45
2023-04-18T13:07:21.935Z,11.80
2023-04-18T13:08:24.118Z,12.88
2023-04-18T13:09:27.138Z,13.38
2023-04-18T13:10:29.347Z,12.57
2023-04-18T13:11:31.569Z,11.68
2023-04-18T13:12:33.937Z,12.50
2023-04-18T13:13:36.216Z,11.50
2023-04-18T13:14:39.222Z,11.77
2023-04-18T13:15:41.431Z,11.57
2023-04-18T13:16:44.262Z,12.07
2023-04-18T13:17:47.033Z,12.18
2023-04-18T13:18:49.338Z,12.30
2023-04-18T13:19:52.147Z,11.25
2023-04-18T13:20:54.445Z,12.10
2023-04-18T13:21:56.742Z,11.50
2023-04-18T13:22:59.269Z,11.80
2023-04-18T13:24:01.504Z,13.70
2023-04-18T13:25:04.215Z,14.23
2023-04-18T13:26:06.562Z,18.55
2023-04-18T13:27:10.547Z,13.43
2023-04-18T13:28:12.856Z,12.77
2023-04-18T13:29:15.690Z,12.25
2023-04-18T13:30:18.231Z,12.20
2023-04-18T13:31:20.506Z,13.63
2023-04-18T13:32:23.467Z,12.95
2023-04-18T13:33:25.729Z,12.48
2023-04-18T13:34:28.130Z,13.25
2023-04-18T13:35:30.473Z,13.15
2023-04-18T13:36:34.764Z,12.02
2023-04-18T13:37:38.044Z,12.25
2023-04-18T13:38:40.468Z,12.75
2023-04-18T13:39:43.367Z,12.70
2023-04-18T13:40:46.679Z,12.25
2023-04-18T13:41:49.054Z,12.93
2023-04-18T13:42:53.286Z,12.30
2023-04-18T13:43:55.667Z,12.98
2023-04-18T13:44:58.547Z,12.55
2023-04-18T13:46:00.806Z,12.13
2023-04-18T13:47:04.967Z,13.05
2023-04-18T13:48:07.209Z,12.90
2023-04-18T13:49:09.605Z,12.70
2023-04-18T13:50:12.099Z,11.82
2023-04-18T13:51:14.287Z,12.10
2023-04-18T13:52:17.462Z,11.93
2023-04-18T13:53:20.931Z,13.25
2023-04-18T13:54:30.303Z,12.15
2023-04-18T13:55:32.934Z,11.90
2023-04-18T13:56:35.171Z,13.00
2023-04-18T13:57:37.401Z,11.82
2023-04-18T13:58:39.774Z,12.05
2023-04-18T13:59:42.013Z,11.10
2023-04-18T14:00:44.169Z,11.43
2023-04-18T14:01:46.713Z,11.68